sensor_id;sensor_type;location;lat;lon;timestamp;P1;durP1;ratioP1;P2;durP2;ratioP2
41436;SDS011;27178;49.460;10.850;2023-04-25T00:00:57;3.10;;;2.10;;
41436;SDS011;27178;49.460;10.850;2023-04-25T00:03:26;2.70;;;2.00;;
41436;SDS011;27178;49.460;10.850;2023-04-25T00:05:56;1.75;;;1.65;;
41436;SDS011;27178;49.460;10.850;2023-04-25T00:08:25;2.47;;;2.25;;
41436;SDS011;27178;49.460;10.850;2023-04-25T00:10:54;2.08;;;1.98;;
41436;SDS011;27178;49.460;10.850;2023-04-25T00:13:23;2.70;;;2.03;;
41436;SDS011;27178;49.460;10.850;2023-04-25T00:15:52;2.20;;;2.10;;
41436;SDS011;27178;49.460;10.850;2023-04-25T00:18:20;2.28;;;2.08;;
41436;SDS011;27178;49.460;10.850;2023-04-25T00:20:49;2.08;;;1.88;;
41436;SDS011;27178;49.460;10.850;2023-04-25T00:23:17;2.47;;;2.28;;
41436;SDS011;27178;49.460;10.850;2023-04-25T00:25:46;3.13;;;2.28;;
41436;SDS011;27178;49.460;10.850;2023-04-25T00:28:17;2.08;;;1.95;;
41436;SDS011;27178;49.460;10.850;2023-04-25T00:30:46;2.30;;;2.10;;
41436;SDS011;27178;49.460;10.850;2023-04-25T00:33:14;2.00;;;1.80;;
41436;SDS011;27178;49.460;10.850;2023-04-25T00:35:43;2.45;;;2.17;;
41436;SDS011;27178;49.460;10.850;2023-04-25T00:38:11;2.08;;;1.98;;
41436;SDS011;27178;49.460;10.850;2023-04-25T00:40:39;2.17;;;1.98;;
41436;SDS011;27178;49.460;10.850;2023-04-25T00:43:10;1.70;;;1.60;;
41436;SDS011;27178;49.460;10.850;2023-04-25T00:45:40;1.60;;;1.50;;
41436;SDS011;27178;49.460;10.850;2023-04-25T00:48:10;1.70;;;1.60;;
41436;SDS011;27178;49.460;10.850;2023-04-25T00:50:39;2.30;;;2.10;;
41436;SDS011;27178;49.460;10.850;2023-04-25T00:53:08;2.10;;;1.90;;
41436;SDS011;27178;49.460;10.850;2023-04-25T00:55:37;1.95;;;1.85;;
41436;SDS011;27178;49.460;10.850;2023-04-25T00:58:05;2.03;;;1.90;;
41436;SDS011;27178;49.460;10.850;2023-04-25T01:00:34;2.20;;;1.98;;
41436;SDS011;27178;49.460;10.850;2023-04-25T01:03:04;2.40;;;2.30;;
41436;SDS011;27178;49.460;10.850;2023-04-25T01:05:33;2.13;;;1.98;;
41436;SDS011;27178;49.460;10.850;2023-04-25T01:08:02;1.98;;;1.88;;
41436;SDS011;27178;49.460;10.850;2023-04-25T01:10:30;2.50;;;2.28;;
41436;SDS011;27178;49.460;10.850;2023-04-25T01:12:58;2.30;;;2.05;;
41436;SDS011;27178;49.460;10.850;2023-04-25T01:15:27;1.83;;;1.73;;
41436;SDS011;27178;49.460;10.850;2023-04-25T01:17:55;2.40;;;2.00;;
41436;SDS011;27178;49.460;10.850;2023-04-25T01:20:26;2.10;;;2.00;;
41436;SDS011;27178;49.460;10.850;2023-04-25T01:22:56;2.40;;;2.20;;
41436;SDS011;27178;49.460;10.850;2023-04-25T01:25:24;2.60;;;2.40;;
41436;SDS011;27178;49.460;10.850;2023-04-25T01:27:53;2.60;;;2.40;;
41436;SDS011;27178;49.460;10.850;2023-04-25T01:30:21;2.75;;;2.55;;
41436;SDS011;27178;49.460;10.850;2023-04-25T01:32:50;2.80;;;2.60;;
41436;SDS011;27178;49.460;10.850;2023-04-25T01:35:20;2.35;;;2.15;;
41436;SDS011;27178;49.460;10.850;2023-04-25T01:37:50;2.28;;;2.08;;
41436;SDS011;27178;49.460;10.850;2023-04-25T01:40:20;2.50;;;2.30;;
41436;SDS011;27178;49.460;10.850;2023-04-25T01:42:50;2.42;;;2.22;;
41436;SDS011;27178;49.460;10.850;2023-04-25T01:45:19;2.60;;;2.40;;
41436;SDS011;27178;49.460;10.850;2023-04-25T01:47:48;4.43;;;2.47;;
41436;SDS011;27178;49.460;10.850;2023-04-25T01:50:18;2.42;;;2.22;;
41436;SDS011;27178;49.460;10.850;2023-04-25T01:52:47;2.10;;;2.00;;
41436;SDS011;27178;49.460;10.850;2023-04-25T01:55:16;2.38;;;2.22;;
41436;SDS011;27178;49.460;10.850;2023-04-25T01:57:45;2.80;;;2.60;;
41436;SDS011;27178;49.460;10.850;2023-04-25T02:00:13;2.83;;;2.63;;
41436;SDS011;27178;49.460;10.850;2023-04-25T02:02:42;2.92;;;2.63;;
41436;SDS011;27178;49.460;10.850;2023-04-25T02:05:11;2.87;;;2.63;;
41436;SDS011;27178;49.460;10.850;2023-04-25T02:07:40;3.43;;;2.47;;
41436;SDS011;27178;49.460;10.850;2023-04-25T02:10:08;2.45;;;2.25;;
41436;SDS011;27178;49.460;10.850;2023-04-25T02:12:37;4.40;;;2.67;;
41436;SDS011;27178;49.460;10.850;2023-04-25T02:15:07;2.67;;;2.47;;
41436;SDS011;27178;49.460;10.850;2023-04-25T02:17:36;2.97;;;2.78;;
41436;SDS011;27178;49.460;10.850;2023-04-25T02:20:05;2.92;;;2.70;;
41436;SDS011;27178;49.460;10.850;2023-04-25T02:22:34;2.95;;;2.67;;
41436;SDS011;27178;49.460;10.850;2023-04-25T02:25:03;3.30;;;3.00;;
41436;SDS011;27178;49.460;10.850;2023-04-25T02:27:32;3.17;;;2.80;;
41436;SDS011;27178;49.460;10.850;2023-04-25T02:30:00;2.95;;;2.65;;
41436;SDS011;27178;49.460;10.850;2023-04-25T02:32:31;3.13;;;2.92;;
41436;SDS011;27178;49.460;10.850;2023-04-25T02:35:00;3.25;;;3.05;;
41436;SDS011;27178;49.460;10.850;2023-04-25T02:37:30;3.03;;;2.83;;
41436;SDS011;27178;49.460;10.850;2023-04-25T02:39:58;3.33;;;3.05;;
41436;SDS011;27178;49.460;10.850;2023-04-25T02:42:27;3.35;;;3.05;;
41436;SDS011;27178;49.460;10.850;2023-04-25T02:44:55;3.00;;;2.80;;
41436;SDS011;27178;49.460;10.850;2023-04-25T02:47:23;3.20;;;3.00;;
41436;SDS011;27178;49.460;10.850;2023-04-25T02:49:53;3.23;;;3.03;;
41436;SDS011;27178;49.460;10.850;2023-04-25T02:52:22;3.30;;;3.00;;
41436;SDS011;27178;49.460;10.850;2023-04-25T02:54:51;3.20;;;3.00;;
41436;SDS011;27178;49.460;10.850;2023-04-25T02:57:19;3.07;;;2.77;;
41436;SDS011;27178;49.460;10.850;2023-04-25T02:59:47;3.27;;;3.03;;
41436;SDS011;27178;49.460;10.850;2023-04-25T03:02:15;3.47;;;3.13;;
41436;SDS011;27178;49.460;10.850;2023-04-25T03:04:43;3.40;;;3.10;;
41436;SDS011;27178;49.460;10.850;2023-04-25T03:07:14;3.63;;;3.33;;
41436;SDS011;27178;49.460;10.850;2023-04-25T03:09:42;3.37;;;3.07;;
41436;SDS011;27178;49.460;10.850;2023-04-25T03:12:10;3.43;;;3.17;;
41436;SDS011;27178;49.460;10.850;2023-04-25T03:14:39;3.70;;;3.40;;
41436;SDS011;27178;49.460;10.850;2023-04-25T03:17:07;3.97;;;3.67;;
41436;SDS011;27178;49.460;10.850;2023-04-25T03:19:35;3.97;;;3.67;;
41436;SDS011;27178;49.460;10.850;2023-04-25T03:22:03;4.05;;;3.75;;
41436;SDS011;27178;49.460;10.850;2023-04-25T03:24:33;4.50;;;4.10;;
41436;SDS011;27178;49.460;10.850;2023-04-25T03:27:03;3.92;;;3.63;;
41436;SDS011;27178;49.460;10.850;2023-04-25T03:29:31;4.40;;;4.10;;
41436;SDS011;27178;49.460;10.850;2023-04-25T03:32:00;4.40;;;4.00;;
41436;SDS011;27178;49.460;10.850;2023-04-25T03:34:28;5.00;;;4.37;;
41436;SDS011;27178;49.460;10.850;2023-04-25T03:36:56;5.43;;;4.55;;
41436;SDS011;27178;49.460;10.850;2023-04-25T03:39:25;4.73;;;4.30;;
41436;SDS011;27178;49.460;10.850;2023-04-25T03:41:55;4.80;;;4.40;;
41436;SDS011;27178;49.460;10.850;2023-04-25T03:44:23;4.60;;;4.30;;
41436;SDS011;27178;49.460;10.850;2023-04-25T03:46:51;4.60;;;4.23;;
41436;SDS011;27178;49.460;10.850;2023-04-25T03:49:20;4.77;;;4.40;;
41436;SDS011;27178;49.460;10.850;2023-04-25T03:51:48;4.83;;;4.43;;
41436;SDS011;27178;49.460;10.850;2023-04-25T03:54:16;4.70;;;4.33;;
41436;SDS011;27178;49.460;10.850;2023-04-25T03:56:45;4.68;;;4.28;;
41436;SDS011;27178;49.460;10.850;2023-04-25T03:59:15;5.10;;;4.70;;
41436;SDS011;27178;49.460;10.850;2023-04-25T04:01:43;5.13;;;4.72;;
41436;SDS011;27178;49.460;10.850;2023-04-25T04:04:11;5.00;;;4.60;;
41436;SDS011;27178;49.460;10.850;2023-04-25T04:06:40;5.32;;;4.93;;
41436;SDS011;27178;49.460;10.850;2023-04-25T04:09:08;4.77;;;4.37;;
41436;SDS011;27178;49.460;10.850;2023-04-25T04:11:38;5.23;;;4.80;;
41436;SDS011;27178;49.460;10.850;2023-04-25T04:14:07;4.73;;;4.23;;
41436;SDS011;27178;49.460;10.850;2023-04-25T04:16:37;4.78;;;4.38;;
41436;SDS011;27178;49.460;10.850;2023-04-25T04:19:06;5.32;;;4.80;;
41436;SDS011;27178;49.460;10.850;2023-04-25T04:21:34;6.72;;;4.25;;
41436;SDS011;27178;49.460;10.850;2023-04-25T04:24:03;5.10;;;4.70;;
41436;SDS011;27178;49.460;10.850;2023-04-25T04:26:32;5.07;;;4.53;;
41436;SDS011;27178;49.460;10.850;2023-04-25T04:29:00;4.97;;;4.57;;
41436;SDS011;27178;49.460;10.850;2023-04-25T04:31:29;4.67;;;4.37;;
41436;SDS011;27178;49.460;10.850;2023-04-25T04:34:00;4.90;;;4.50;;
41436;SDS011;27178;49.460;10.850;2023-04-25T04:36:30;4.80;;;4.40;;
41436;SDS011;27178;49.460;10.850;2023-04-25T04:38:58;4.40;;;4.00;;
41436;SDS011;27178;49.460;10.850;2023-04-25T04:41:27;4.82;;;4.43;;
41436;SDS011;27178;49.460;10.850;2023-04-25T04:43:55;4.90;;;4.50;;
41436;SDS011;27178;49.460;10.850;2023-04-25T04:46:23;4.80;;;4.40;;
41436;SDS011;27178;49.460;10.850;2023-04-25T04:48:52;6.70;;;4.82;;
41436;SDS011;27178;49.460;10.850;2023-04-25T04:51:24;6.10;;;5.60;;
41436;SDS011;27178;49.460;10.850;2023-04-25T04:53:52;5.60;;;5.10;;
41436;SDS011;27178;49.460;10.850;2023-04-25T04:56:25;4.80;;;4.40;;
41436;SDS011;27178;49.460;10.850;2023-04-25T04:58:54;4.15;;;3.85;;
41436;SDS011;27178;49.460;10.850;2023-04-25T05:01:22;3.90;;;3.60;;
41436;SDS011;27178;49.460;10.850;2023-04-25T05:03:51;4.20;;;3.90;;
41436;SDS011;27178;49.460;10.850;2023-04-25T05:06:20;3.58;;;3.33;;
41436;SDS011;27178;49.460;10.850;2023-04-25T05:08:50;4.27;;;3.87;;
41436;SDS011;27178;49.460;10.850;2023-04-25T05:11:19;3.58;;;3.38;;
41436;SDS011;27178;49.460;10.850;2023-04-25T05:13:47;3.80;;;3.50;;
41436;SDS011;27178;49.460;10.850;2023-04-25T05:16:17;4.18;;;3.88;;
41436;SDS011;27178;49.460;10.850;2023-04-25T05:18:45;4.40;;;3.55;;
41436;SDS011;27178;49.460;10.850;2023-04-25T05:21:14;4.07;;;3.78;;
41436;SDS011;27178;49.460;10.850;2023-04-25T05:23:42;4.07;;;3.78;;
41436;SDS011;27178;49.460;10.850;2023-04-25T05:26:12;3.58;;;3.33;;
41436;SDS011;27178;49.460;10.850;2023-04-25T05:28:40;3.35;;;3.15;;
41436;SDS011;27178;49.460;10.850;2023-04-25T05:31:09;4.13;;;3.72;;
41436;SDS011;27178;49.460;10.850;2023-04-25T05:33:37;4.07;;;3.78;;
41436;SDS011;27178;49.460;10.850;2023-04-25T05:36:06;4.32;;;4.03;;
41436;SDS011;27178;49.460;10.850;2023-04-25T05:38:35;4.47;;;3.92;;
41436;SDS011;27178;49.460;10.850;2023-04-25T05:41:03;3.90;;;3.60;;
41436;SDS011;27178;49.460;10.850;2023-04-25T05:43:33;4.32;;;4.03;;
41436;SDS011;27178;49.460;10.850;2023-04-25T05:46:01;4.40;;;4.00;;
41436;SDS011;27178;49.460;10.850;2023-04-25T05:48:30;4.28;;;3.88;;
41436;SDS011;27178;49.460;10.850;2023-04-25T05:50:58;4.50;;;4.18;;
41436;SDS011;27178;49.460;10.850;2023-04-25T05:53:26;4.13;;;3.83;;
41436;SDS011;27178;49.460;10.850;2023-04-25T05:55:55;4.53;;;4.10;;
41436;SDS011;27178;49.460;10.850;2023-04-25T05:58:23;4.20;;;3.90;;
41436;SDS011;27178;49.460;10.850;2023-04-25T06:00:53;3.65;;;3.35;;
41436;SDS011;27178;49.460;10.850;2023-04-25T06:03:21;3.65;;;3.35;;
41436;SDS011;27178;49.460;10.850;2023-04-25T06:05:50;3.95;;;3.65;;
41436;SDS011;27178;49.460;10.850;2023-04-25T06:08:18;4.05;;;3.75;;
41436;SDS011;27178;49.460;10.850;2023-04-25T06:10:47;4.18;;;3.88;;
41436;SDS011;27178;49.460;10.850;2023-04-25T06:13:15;4.22;;;3.92;;
41436;SDS011;27178;49.460;10.850;2023-04-25T06:15:43;4.90;;;4.50;;
41436;SDS011;27178;49.460;10.850;2023-04-25T06:18:13;4.90;;;4.43;;
41436;SDS011;27178;49.460;10.850;2023-04-25T06:20:42;4.28;;;3.95;;
41436;SDS011;27178;49.460;10.850;2023-04-25T06:23:10;4.05;;;3.63;;
41436;SDS011;27178;49.460;10.850;2023-04-25T06:25:38;4.38;;;4.00;;
41436;SDS011;27178;49.460;10.850;2023-04-25T06:28:06;4.47;;;4.07;;
41436;SDS011;27178;49.460;10.850;2023-04-25T06:30:35;5.00;;;4.53;;
41436;SDS011;27178;49.460;10.850;2023-04-25T06:33:03;4.50;;;4.15;;
41436;SDS011;27178;49.460;10.850;2023-04-25T06:35:33;4.68;;;4.35;;
41436;SDS011;27178;49.460;10.850;2023-04-25T06:38:02;4.75;;;4.35;;
41436;SDS011;27178;49.460;10.850;2023-04-25T06:40:30;4.38;;;3.97;;
41436;SDS011;27178;49.460;10.850;2023-04-25T06:42:58;4.88;;;4.47;;
41436;SDS011;27178;49.460;10.850;2023-04-25T06:45:26;4.93;;;4.53;;
41436;SDS011;27178;49.460;10.850;2023-04-25T06:47:55;4.72;;;4.32;;
41436;SDS011;27178;49.460;10.850;2023-04-25T06:50:23;4.78;;;4.38;;
41436;SDS011;27178;49.460;10.850;2023-04-25T06:52:53;4.82;;;4.38;;
41436;SDS011;27178;49.460;10.850;2023-04-25T06:55:21;3.75;;;3.30;;
41436;SDS011;27178;49.460;10.850;2023-04-25T06:57:50;3.58;;;3.28;;
41436;SDS011;27178;49.460;10.850;2023-04-25T07:00:18;4.00;;;3.33;;
41436;SDS011;27178;49.460;10.850;2023-04-25T07:02:47;3.60;;;3.30;;
41436;SDS011;27178;49.460;10.850;2023-04-25T07:05:15;4.53;;;3.65;;
41436;SDS011;27178;49.460;10.850;2023-04-25T07:07:44;4.03;;;3.72;;
41436;SDS011;27178;49.460;10.850;2023-04-25T07:10:14;3.90;;;3.42;;
41436;SDS011;27178;49.460;10.850;2023-04-25T07:12:43;5.47;;;3.20;;
41436;SDS011;27178;49.460;10.850;2023-04-25T07:15:11;3.08;;;2.83;;
41436;SDS011;27178;49.460;10.850;2023-04-25T07:17:40;3.05;;;2.75;;
41436;SDS011;27178;49.460;10.850;2023-04-25T07:20:09;2.85;;;2.65;;
41436;SDS011;27178;49.460;10.850;2023-04-25T07:22:38;3.08;;;2.85;;
41436;SDS011;27178;49.460;10.850;2023-04-25T07:25:07;3.05;;;2.75;;
41436;SDS011;27178;49.460;10.850;2023-04-25T07:27:37;3.33;;;2.83;;
41436;SDS011;27178;49.460;10.850;2023-04-25T07:30:06;4.82;;;3.17;;
41436;SDS011;27178;49.460;10.850;2023-04-25T07:32:35;3.70;;;3.05;;
41436;SDS011;27178;49.460;10.850;2023-04-25T07:35:05;3.42;;;3.13;;
41436;SDS011;27178;49.460;10.850;2023-04-25T07:37:34;3.47;;;3.17;;
41436;SDS011;27178;49.460;10.850;2023-04-25T07:40:03;3.35;;;3.00;;
41436;SDS011;27178;49.460;10.850;2023-04-25T07:42:31;3.13;;;2.83;;
41436;SDS011;27178;49.460;10.850;2023-04-25T07:45:01;2.50;;;2.30;;
41436;SDS011;27178;49.460;10.850;2023-04-25T07:47:30;2.50;;;2.30;;
41436;SDS011;27178;49.460;10.850;2023-04-25T07:49:58;2.72;;;2.53;;
41436;SDS011;27178;49.460;10.850;2023-04-25T07:52:27;2.38;;;2.17;;
41436;SDS011;27178;49.460;10.850;2023-04-25T07:54:55;2.75;;;2.33;;
41436;SDS011;27178;49.460;10.850;2023-04-25T07:57:25;2.90;;;2.33;;
41436;SDS011;27178;49.460;10.850;2023-04-25T07:59:53;2.28;;;1.98;;
41436;SDS011;27178;49.460;10.850;2023-04-25T08:02:23;2.40;;;2.25;;
41436;SDS011;27178;49.460;10.850;2023-04-25T08:04:52;2.28;;;2.05;;
41436;SDS011;27178;49.460;10.850;2023-04-25T08:07:20;2.50;;;2.15;;
41436;SDS011;27178;49.460;10.850;2023-04-25T08:09:49;2.33;;;2.03;;
41436;SDS011;27178;49.460;10.850;2023-04-25T08:12:17;2.13;;;2.03;;
41436;SDS011;27178;49.460;10.850;2023-04-25T08:14:48;2.20;;;2.03;;
41436;SDS011;27178;49.460;10.850;2023-04-25T08:17:16;2.78;;;2.53;;
41436;SDS011;27178;49.460;10.850;2023-04-25T08:19:46;2.78;;;2.58;;
41436;SDS011;27178;49.460;10.850;2023-04-25T08:22:14;2.72;;;2.47;;
41436;SDS011;27178;49.460;10.850;2023-04-25T08:24:43;3.05;;;2.50;;
41436;SDS011;27178;49.460;10.850;2023-04-25T08:27:11;2.63;;;2.42;;
41436;SDS011;27178;49.460;10.850;2023-04-25T08:29:40;2.60;;;2.40;;
41436;SDS011;27178;49.460;10.850;2023-04-25T08:32:09;3.40;;;3.10;;
41436;SDS011;27178;49.460;10.850;2023-04-25T08:34:37;2.90;;;2.70;;
41436;SDS011;27178;49.460;10.850;2023-04-25T08:37:09;3.17;;;2.88;;
41436;SDS011;27178;49.460;10.850;2023-04-25T08:39:38;3.03;;;2.78;;
41436;SDS011;27178;49.460;10.850;2023-04-25T08:42:07;3.10;;;2.90;;
41436;SDS011;27178;49.460;10.850;2023-04-25T08:44:35;3.20;;;3.00;;
41436;SDS011;27178;49.460;10.850;2023-04-25T08:47:04;3.30;;;3.00;;
41436;SDS011;27178;49.460;10.850;2023-04-25T08:49:33;3.35;;;3.05;;
41436;SDS011;27178;49.460;10.850;2023-04-25T08:52:03;3.53;;;3.20;;
41436;SDS011;27178;49.460;10.850;2023-04-25T08:54:34;3.38;;;3.08;;
41436;SDS011;27178;49.460;10.850;2023-04-25T08:57:06;3.50;;;3.20;;
41436;SDS011;27178;49.460;10.850;2023-04-25T08:59:35;4.03;;;3.33;;
41436;SDS011;27178;49.460;10.850;2023-04-25T09:02:04;3.50;;;3.20;;
41436;SDS011;27178;49.460;10.850;2023-04-25T09:04:33;3.80;;;3.50;;
41436;SDS011;27178;49.460;10.850;2023-04-25T09:07:01;3.22;;;3.03;;
41436;SDS011;27178;49.460;10.850;2023-04-25T09:09:30;4.07;;;3.72;;
41436;SDS011;27178;49.460;10.850;2023-04-25T09:12:00;3.95;;;3.65;;
41436;SDS011;27178;49.460;10.850;2023-04-25T09:14:29;4.93;;;3.75;;
41436;SDS011;27178;49.460;10.850;2023-04-25T09:16:58;3.90;;;3.47;;
41436;SDS011;27178;49.460;10.850;2023-04-25T09:19:29;4.28;;;3.90;;
41436;SDS011;27178;49.460;10.850;2023-04-25T09:22:06;3.63;;;3.38;;
41436;SDS011;27178;49.460;10.850;2023-04-25T09:24:36;3.92;;;3.63;;
41436;SDS011;27178;49.460;10.850;2023-04-25T09:27:09;3.85;;;3.55;;
41436;SDS011;27178;49.460;10.850;2023-04-25T09:29:38;4.35;;;3.95;;
41436;SDS011;27178;49.460;10.850;2023-04-25T09:32:12;4.35;;;3.97;;
41436;SDS011;27178;49.460;10.850;2023-04-25T09:34:44;4.38;;;3.97;;
41436;SDS011;27178;49.460;10.850;2023-04-25T09:37:17;4.43;;;3.78;;
41436;SDS011;27178;49.460;10.850;2023-04-25T09:39:47;4.78;;;4.32;;
41436;SDS011;27178;49.460;10.850;2023-04-25T09:42:17;3.92;;;3.53;;
41436;SDS011;27178;49.460;10.850;2023-04-25T09:44:51;4.28;;;3.88;;
41436;SDS011;27178;49.460;10.850;2023-04-25T09:47:20;4.05;;;3.70;;
41436;SDS011;27178;49.460;10.850;2023-04-25T09:49:50;3.97;;;3.58;;
41436;SDS011;27178;49.460;10.850;2023-04-25T09:52:20;3.63;;;3.33;;
41436;SDS011;27178;49.460;10.850;2023-04-25T09:54:51;5.50;;;3.58;;
41436;SDS011;27178;49.460;10.850;2023-04-25T09:57:22;2.95;;;2.75;;
41436;SDS011;27178;49.460;10.850;2023-04-25T09:59:52;3.85;;;3.40;;
41436;SDS011;27178;49.460;10.850;2023-04-25T10:02:22;3.65;;;3.35;;
41436;SDS011;27178;49.460;10.850;2023-04-25T10:04:53;3.80;;;3.40;;
41436;SDS011;27178;49.460;10.850;2023-04-25T10:07:23;3.60;;;2.90;;
41436;SDS011;27178;49.460;10.850;2023-04-25T10:09:55;3.88;;;3.03;;
41436;SDS011;27178;49.460;10.850;2023-04-25T10:12:28;2.85;;;2.65;;
41436;SDS011;27178;49.460;10.850;2023-04-25T10:14:58;3.53;;;3.03;;
41436;SDS011;27178;49.460;10.850;2023-04-25T10:17:28;3.38;;;3.05;;
41436;SDS011;27178;49.460;10.850;2023-04-25T10:19:56;3.03;;;2.83;;
41436;SDS011;27178;49.460;10.850;2023-04-25T10:22:26;3.38;;;2.75;;
41436;SDS011;27178;49.460;10.850;2023-04-25T10:24:58;3.45;;;3.15;;
41436;SDS011;27178;49.460;10.850;2023-04-25T10:27:31;4.05;;;3.03;;
41436;SDS011;27178;49.460;10.850;2023-04-25T10:30:00;4.38;;;2.50;;
41436;SDS011;27178;49.460;10.850;2023-04-25T10:32:30;2.58;;;2.25;;
41436;SDS011;27178;49.460;10.850;2023-04-25T10:35:09;3.40;;;2.75;;
41436;SDS011;27178;49.460;10.850;2023-04-25T10:40:26;3.35;;;2.75;;
41436;SDS011;27178;49.460;10.850;2023-04-25T10:42:55;3.30;;;2.38;;
41436;SDS011;27178;49.460;10.850;2023-04-25T10:46:12;2.25;;;2.05;;
41436;SDS011;27178;49.460;10.850;2023-04-25T10:48:45;2.40;;;2.20;;
41436;SDS011;27178;49.460;10.850;2023-04-25T10:51:16;5.18;;;2.67;;
41436;SDS011;27178;49.460;10.850;2023-04-25T10:53:56;2.60;;;2.20;;
41436;SDS011;27178;49.460;10.850;2023-04-25T10:56:25;2.80;;;2.30;;
41436;SDS011;27178;49.460;10.850;2023-04-25T10:59:06;3.35;;;2.20;;
41436;SDS011;27178;49.460;10.850;2023-04-25T11:01:38;2.40;;;2.20;;
41436;SDS011;27178;49.460;10.850;2023-04-25T11:04:18;2.88;;;1.90;;
41436;SDS011;27178;49.460;10.850;2023-04-25T11:06:53;2.25;;;2.05;;
41436;SDS011;27178;49.460;10.850;2023-04-25T11:09:33;3.78;;;2.20;;
41436;SDS011;27178;49.460;10.850;2023-04-25T11:12:03;2.60;;;1.90;;
41436;SDS011;27178;49.460;10.850;2023-04-25T11:14:34;1.88;;;1.73;;
41436;SDS011;27178;49.460;10.850;2023-04-25T11:17:03;3.05;;;2.22;;
41436;SDS011;27178;49.460;10.850;2023-04-25T11:19:32;2.03;;;1.70;;
41436;SDS011;27178;49.460;10.850;2023-04-25T11:22:01;1.95;;;1.60;;
41436;SDS011;27178;49.460;10.850;2023-04-25T11:24:30;1.70;;;1.60;;
41436;SDS011;27178;49.460;10.850;2023-04-25T11:27:01;1.60;;;1.50;;
41436;SDS011;27178;49.460;10.850;2023-04-25T11:29:30;1.38;;;1.27;;
41436;SDS011;27178;49.460;10.850;2023-04-25T11:32:01;1.42;;;1.33;;
41436;SDS011;27178;49.460;10.850;2023-04-25T11:34:30;1.77;;;1.67;;
41436;SDS011;27178;49.460;10.850;2023-04-25T11:37:00;1.33;;;1.23;;
41436;SDS011;27178;49.460;10.850;2023-04-25T11:39:30;1.95;;;1.55;;
41436;SDS011;27178;49.460;10.850;2023-04-25T11:41:58;1.70;;;1.60;;
41436;SDS011;27178;49.460;10.850;2023-04-25T11:44:33;1.52;;;1.42;;
41436;SDS011;27178;49.460;10.850;2023-04-25T11:47:03;1.30;;;1.20;;
41436;SDS011;27178;49.460;10.850;2023-04-25T11:49:32;1.50;;;1.40;;
41436;SDS011;27178;49.460;10.850;2023-04-25T11:52:01;2.00;;;1.80;;
41436;SDS011;27178;49.460;10.850;2023-04-25T11:54:30;6.15;;;1.63;;
41436;SDS011;27178;49.460;10.850;2023-04-25T11:56:58;1.95;;;1.73;;
41436;SDS011;27178;49.460;10.850;2023-04-25T11:59:28;1.23;;;1.17;;
41436;SDS011;27178;49.460;10.850;2023-04-25T12:01:56;2.40;;;1.50;;
41436;SDS011;27178;49.460;10.850;2023-04-25T12:04:29;3.17;;;1.50;;
41436;SDS011;27178;49.460;10.850;2023-04-25T12:07:00;2.20;;;1.58;;
41436;SDS011;27178;49.460;10.850;2023-04-25T12:09:29;1.40;;;1.20;;
41436;SDS011;27178;49.460;10.850;2023-04-25T12:12:00;1.77;;;1.65;;
41436;SDS011;27178;49.460;10.850;2023-04-25T12:14:31;1.60;;;1.50;;
41436;SDS011;27178;49.460;10.850;2023-04-25T12:17:02;1.63;;;1.38;;
41436;SDS011;27178;49.460;10.850;2023-04-25T12:19:36;1.58;;;1.48;;
41436;SDS011;27178;49.460;10.850;2023-04-25T12:22:18;1.50;;;1.40;;
41436;SDS011;27178;49.460;10.850;2023-04-25T12:24:48;1.58;;;1.40;;
41436;SDS011;27178;49.460;10.850;2023-04-25T12:27:16;2.08;;;1.52;;
41436;SDS011;27178;49.460;10.850;2023-04-25T12:29:52;1.42;;;1.33;;
41436;SDS011;27178;49.460;10.850;2023-04-25T12:32:22;1.40;;;1.30;;
41436;SDS011;27178;49.460;10.850;2023-04-25T12:34:52;2.65;;;1.40;;
41436;SDS011;27178;49.460;10.850;2023-04-25T12:37:20;1.65;;;1.55;;
41436;SDS011;27178;49.460;10.850;2023-04-25T12:39:48;1.70;;;1.60;;
41436;SDS011;27178;49.460;10.850;2023-04-25T12:42:17;1.60;;;1.50;;
41436;SDS011;27178;49.460;10.850;2023-04-25T12:44:45;2.17;;;1.60;;
41436;SDS011;27178;49.460;10.850;2023-04-25T12:47:13;2.10;;;1.70;;
41436;SDS011;27178;49.460;10.850;2023-04-25T12:49:42;1.65;;;1.55;;
41436;SDS011;27178;49.460;10.850;2023-04-25T12:52:11;1.80;;;1.70;;
41436;SDS011;27178;49.460;10.850;2023-04-25T12:54:39;1.58;;;1.48;;
41436;SDS011;27178;49.460;10.850;2023-04-25T12:57:07;1.50;;;1.40;;
41436;SDS011;27178;49.460;10.850;2023-04-25T12:59:36;1.65;;;1.52;;
41436;SDS011;27178;49.460;10.850;2023-04-25T13:02:05;2.20;;;2.00;;
41436;SDS011;27178;49.460;10.850;2023-04-25T13:04:33;1.95;;;1.83;;
41436;SDS011;27178;49.460;10.850;2023-04-25T13:07:02;1.80;;;1.70;;
41436;SDS011;27178;49.460;10.850;2023-04-25T13:09:33;2.30;;;2.10;;
41436;SDS011;27178;49.460;10.850;2023-04-25T13:12:01;2.85;;;2.20;;
41436;SDS011;27178;49.460;10.850;2023-04-25T13:14:30;2.30;;;1.98;;
41436;SDS011;27178;49.460;10.850;2023-04-25T13:16:59;1.90;;;1.70;;
41436;SDS011;27178;49.460;10.850;2023-04-25T13:19:27;2.05;;;1.90;;
41436;SDS011;27178;49.460;10.850;2023-04-25T13:21:56;2.80;;;2.05;;
41436;SDS011;27178;49.460;10.850;2023-04-25T13:24:25;1.83;;;1.73;;
41436;SDS011;27178;49.460;10.850;2023-04-25T13:26:55;4.78;;;2.05;;
41436;SDS011;27178;49.460;10.850;2023-04-25T13:29:23;1.88;;;1.77;;
41436;SDS011;27178;49.460;10.850;2023-04-25T13:31:52;2.08;;;1.90;;
41436;SDS011;27178;49.460;10.850;2023-04-25T13:34:20;2.33;;;2.00;;
41436;SDS011;27178;49.460;10.850;2023-04-25T13:36:49;2.30;;;2.10;;
41436;SDS011;27178;49.460;10.850;2023-04-25T13:39:17;3.15;;;2.20;;
41436;SDS011;27178;49.460;10.850;2023-04-25T13:41:46;2.70;;;1.90;;
41436;SDS011;27178;49.460;10.850;2023-04-25T13:44:16;3.55;;;2.13;;
41436;SDS011;27178;49.460;10.850;2023-04-25T13:46:44;2.00;;;1.90;;
41436;SDS011;27178;49.460;10.850;2023-04-25T13:49:13;1.98;;;1.77;;
41436;SDS011;27178;49.460;10.850;2023-04-25T13:51:42;2.38;;;1.77;;
41436;SDS011;27178;49.460;10.850;2023-04-25T13:54:10;1.80;;;1.70;;
41436;SDS011;27178;49.460;10.850;2023-04-25T13:56:39;2.35;;;2.10;;
41436;SDS011;27178;49.460;10.850;2023-04-25T13:59:08;2.25;;;2.05;;
41436;SDS011;27178;49.460;10.850;2023-04-25T14:01:39;3.00;;;2.17;;
41436;SDS011;27178;49.460;10.850;2023-04-25T14:04:07;2.40;;;2.20;;
41436;SDS011;27178;49.460;10.850;2023-04-25T14:06:35;2.10;;;1.90;;
41436;SDS011;27178;49.460;10.850;2023-04-25T14:09:04;2.42;;;2.22;;
41436;SDS011;27178;49.460;10.850;2023-04-25T14:11:33;2.00;;;1.85;;
41436;SDS011;27178;49.460;10.850;2023-04-25T14:14:02;2.40;;;2.10;;
41436;SDS011;27178;49.460;10.850;2023-04-25T14:16:30;3.72;;;1.95;;
41436;SDS011;27178;49.460;10.850;2023-04-25T14:19:00;2.40;;;2.15;;
41436;SDS011;27178;49.460;10.850;2023-04-25T14:21:29;3.70;;;1.90;;
41436;SDS011;27178;49.460;10.850;2023-04-25T14:23:59;4.63;;;2.10;;
41436;SDS011;27178;49.460;10.850;2023-04-25T14:26:28;2.33;;;2.13;;
41436;SDS011;27178;49.460;10.850;2023-04-25T14:28:56;2.70;;;2.05;;
41436;SDS011;27178;49.460;10.850;2023-04-25T14:31:24;2.17;;;1.98;;
41436;SDS011;27178;49.460;10.850;2023-04-25T14:33:54;2.80;;;2.38;;
41436;SDS011;27178;49.460;10.850;2023-04-25T14:36:26;2.67;;;2.40;;
41436;SDS011;27178;49.460;10.850;2023-04-25T14:38:57;3.08;;;2.22;;
41436;SDS011;27178;49.460;10.850;2023-04-25T14:41:25;3.17;;;2.50;;
41436;SDS011;27178;49.460;10.850;2023-04-25T14:43:55;2.53;;;2.13;;
41436;SDS011;27178;49.460;10.850;2023-04-25T14:46:23;3.75;;;2.63;;
41436;SDS011;27178;49.460;10.850;2023-04-25T14:48:51;2.25;;;1.92;;